Time;durP1;ratioP1;P1;durP2;ratioP2;P2;SDS_P1;SDS_P2;PMS_P1;PMS_P2;Temp;Humidity;BMP_temperature;BMP_pressure;BME280_temperature;BME280_humidity;BME280_pressure;Samples;Min_cycle;Max_cycle;Signal;HPM_P1;HPM_P2
2023/01/03 00:01:54;;;;;;;5.57;3.13;;;;;;;;;;4926638;28;20922;-88
2023/01/03 00:04:20;;;;;;;3.93;2.83;;;;;;;;;;4914729;28;20236;-87
2023/01/03 00:06:52;;;;;;;4.60;2.80;;;;;;;;;;4932620;28;20229;-87
2023/01/03 00:09:22;;;;;;;4.57;2.60;;;;;;;;;;4925220;28;20456;-88
2023/01/03 00:14:37;;;;;;;3.87;2.73;;;;;;;;;;4921858;28;20298;-88
2023/01/03 00:17:08;;;;;;;6.43;3.03;;;;;;;;;;4936065;28;20303;-87
2023/01/03 00:19:40;;;;;;;3.97;3.07;;;;;;;;;;4932698;28;20285;-87
2023/01/03 00:22:06;;;;;;;4.90;3.20;;;;;;;;;;4926606;28;20545;-88
2023/01/03 00:24:36;;;;;;;4.70;3.00;;;;;;;;;;4945035;28;20249;-85
2023/01/03 00:27:02;;;;;;;3.30;3.03;;;;;;;;;;4936509;29;20242;-86
2023/01/03 00:29:28;;;;;;;5.60;3.90;;;;;;;;;;4919253;28;20230;-87
2023/01/03 00:31:56;;;;;;;4.00;3.33;;;;;;;;;;4911407;28;20595;-86
2023/01/03 00:34:24;;;;;;;5.93;3.63;;;;;;;;;;4933220;28;20245;-87
2023/01/03 00:36:49;;;;;;;3.80;3.40;;;;;;;;;;4924975;28;20975;-86
2023/01/03 00:39:15;;;;;;;4.87;3.77;;;;;;;;;;4907764;28;20246;-86
2023/01/03 00:41:41;;;;;;;8.43;3.57;;;;;;;;;;4921664;29;21062;-87
2023/01/03 00:44:06;;;;;;;4.57;3.67;;;;;;;;;;4924043;29;20253;-86
2023/01/03 00:46:34;;;;;;;6.07;3.60;;;;;;;;;;4925103;28;20329;-86
2023/01/03 00:49:05;;;;;;;5.67;3.57;;;;;;;;;;4925636;28;20652;-85
2023/01/03 00:51:32;;;;;;;4.13;3.63;;;;;;;;;;4943329;28;20277;-85
2023/01/03 00:54:00;;;;;;;5.63;3.87;;;;;;;;;;4933907;29;20277;-86
2023/01/03 00:56:36;;;;;;;9.57;4.23;;;;;;;;;;4938692;28;20246;-87
2023/01/03 00:59:02;;;;;;;4.57;3.40;;;;;;;;;;4926493;28;20242;-84
2023/01/03 01:01:33;;;;;;;5.00;3.50;;;;;;;;;;4930656;28;20741;-85
2023/01/03 01:04:09;;;;;;;5.77;3.03;;;;;;;;;;4932141;28;20242;-86
2023/01/03 01:06:39;;;;;;;4.87;2.70;;;;;;;;;;4953530;28;20226;-86
2023/01/03 01:09:14;;;;;;;5.27;2.87;;;;;;;;;;4923401;28;20222;-84
2023/01/03 01:11:43;;;;;;;5.00;2.73;;;;;;;;;;4944861;29;20230;-86
2023/01/03 01:14:18;;;;;;;4.63;2.27;;;;;;;;;;4924366;28;20250;-86
2023/01/03 01:17:05;;;;;;;1.63;1.53;;;;;;;;;;4909482;28;20719;-87
2023/01/03 01:19:35;;;;;;;2.37;1.70;;;;;;;;;;4939950;28;20230;-87
2023/01/03 01:22:06;;;;;;;2.90;1.70;;;;;;;;;;4931285;28;20280;-88
2023/01/03 01:24:31;;;;;;;1.70;1.60;;;;;;;;;;4916490;28;20250;-86
2023/01/03 01:26:57;;;;;;;4.00;1.73;;;;;;;;;;4936813;28;20687;-88
2023/01/03 01:29:25;;;;;;;2.80;1.80;;;;;;;;;;4922221;28;20226;-87
2023/01/03 01:31:53;;;;;;;4.73;2.10;;;;;;;;;;4924231;28;20233;-86
2023/01/03 01:34:21;;;;;;;3.67;1.90;;;;;;;;;;4926258;28;20234;-87
2023/01/03 01:36:47;;;;;;;3.90;2.00;;;;;;;;;;4923662;28;20230;-89
2023/01/03 01:39:18;;;;;;;2.20;2.00;;;;;;;;;;4924572;28;20278;-86
2023/01/03 01:44:52;;;;;;;2.93;2.17;;;;;;;;;;4929550;28;20286;-88
2023/01/03 01:47:30;;;;;;;4.63;2.80;;;;;;;;;;4937306;28;20239;-87
2023/01/03 01:50:11;;;;;;;5.27;2.63;;;;;;;;;;4931618;28;20312;-88
2023/01/03 01:52:47;;;;;;;3.43;2.70;;;;;;;;;;4962768;28;20214;-88
2023/01/03 01:55:17;;;;;;;6.10;2.87;;;;;;;;;;4936453;28;20230;-87
2023/01/03 01:57:42;;;;;;;3.47;2.97;;;;;;;;;;4936851;28;20230;-86
2023/01/03 02:00:11;;;;;;;3.90;3.33;;;;;;;;;;4939240;28;20227;-85
2023/01/03 02:02:42;;;;;;;4.00;3.37;;;;;;;;;;4925103;28;20202;-84
2023/01/03 02:05:10;;;;;;;4.17;3.40;;;;;;;;;;4943284;28;20219;-85
2023/01/03 02:07:37;;;;;;;5.03;3.43;;;;;;;;;;4930604;28;20457;-83
2023/01/03 02:10:09;;;;;;;5.17;3.90;;;;;;;;;;4946504;28;20202;-84
2023/01/03 02:13:04;;;;;;;7.40;3.60;;;;;;;;;;4944777;28;20234;-85
2023/01/03 02:15:59;;;;;;;7.10;3.90;;;;;;;;;;4959839;28;20231;-84
2023/01/03 02:18:45;;;;;;;5.17;3.93;;;;;;;;;;4938634;28;20225;-85
2023/01/03 02:21:38;;;;;;;5.37;4.50;;;;;;;;;;4971214;28;20237;-86
2023/01/03 02:24:53;;;;;;;7.97;4.60;;;;;;;;;;4976977;28;20375;-86
2023/01/03 02:27:39;;;;;;;9.27;4.60;;;;;;;;;;4892212;28;20233;-84
2023/01/03 02:30:35;;;;;;;6.47;4.47;;;;;;;;;;4956759;28;20219;-86
2023/01/03 02:33:21;;;;;;;4.83;4.43;;;;;;;;;;4973685;28;20253;-85
2023/01/03 02:36:03;;;;;;;8.40;4.63;;;;;;;;;;4970089;28;20222;-83
2023/01/03 02:38:38;;;;;;;8.30;5.40;;;;;;;;;;4951152;28;20226;-85
2023/01/03 02:41:44;;;;;;;6.73;4.90;;;;;;;;;;4952515;28;20303;-84
2023/01/03 02:44:16;;;;;;;6.43;5.37;;;;;;;;;;4941883;28;20261;-85
2023/01/03 02:46:49;;;;;;;6.77;4.43;;;;;;;;;;4978015;28;20242;-86
2023/01/03 02:49:37;;;;;;;6.07;4.77;;;;;;;;;;4933855;28;20249;-84
2023/01/03 02:52:05;;;;;;;9.43;5.43;;;;;;;;;;4939848;29;20241;-89
2023/01/03 02:54:41;;;;;;;5.83;4.50;;;;;;;;;;4926281;28;20244;-88
2023/01/03 02:57:09;;;;;;;9.70;4.77;;;;;;;;;;4954916;28;20252;-89
2023/01/03 02:59:50;;;;;;;6.83;4.73;;;;;;;;;;4922549;28;20702;-87
2023/01/03 03:02:19;;;;;;;6.37;4.87;;;;;;;;;;4900528;29;1127934;-87
2023/01/03 03:04:47;;;;;;;5.80;4.57;;;;;;;;;;4921796;29;20227;-89
2023/01/03 03:07:38;;;;;;;5.47;4.87;;;;;;;;;;4911019;28;20262;-88
2023/01/03 03:13:12;;;;;;;6.53;5.20;;;;;;;;;;4936414;28;20313;-89
2023/01/03 03:15:48;;;;;;;9.77;5.13;;;;;;;;;;4928910;29;20241;-88
2023/01/03 03:18:21;;;;;;;6.33;5.37;;;;;;;;;;4921678;29;20230;-83
2023/01/03 03:26:30;;;;;;;5.90;5.30;;;;;;;;;;4919832;28;20309;-88
2023/01/03 03:29:01;;;;;;;9.90;4.90;;;;;;;;;;4919064;28;20233;-88
2023/01/03 03:31:35;;;;;;;8.53;5.43;;;;;;;;;;4920956;29;20238;-87
2023/01/03 03:34:08;;;;;;;6.63;6.00;;;;;;;;;;4943656;28;20292;-86
2023/01/03 03:36:34;;;;;;;8.80;5.50;;;;;;;;;;4951685;28;20226;-89
2023/01/03 03:39:00;;;;;;;6.07;5.50;;;;;;;;;;4938539;28;20715;-88
2023/01/03 03:47:43;;;;;;;9.57;6.47;;;;;;;;;;4929844;28;20229;-89
2023/01/03 03:50:31;;;;;;;9.00;6.33;;;;;;;;;;4917183;28;20256;-89
2023/01/03 03:53:01;;;;;;;7.77;6.47;;;;;;;;;;4967437;28;20328;-89
2023/01/03 03:55:41;;;;;;;7.97;7.17;;;;;;;;;;4910687;28;20222;-90
2023/01/03 03:58:20;;;;;;;9.23;6.50;;;;;;;;;;4934827;29;20230;-89
2023/01/03 04:00:48;;;;;;;7.73;6.43;;;;;;;;;;4930105;28;20907;-87
2023/01/03 04:03:16;;;;;;;7.17;6.47;;;;;;;;;;4939955;28;20214;-85
2023/01/03 04:06:40;;;;;;;10.33;7.27;;;;;;;;;;4936661;28;20227;-87
2023/01/03 04:09:08;;;;;;;7.03;6.17;;;;;;;;;;4945321;28;20218;-84
2023/01/03 04:11:37;;;;;;;7.70;6.87;;;;;;;;;;4938394;28;20226;-84
2023/01/03 04:14:05;;;;;;;9.17;7.13;;;;;;;;;;4954306;28;20315;-87
2023/01/03 04:16:30;;;;;;;8.27;7.43;;;;;;;;;;4945841;28;20222;-84
2023/01/03 04:18:58;;;;;;;11.90;7.90;;;;;;;;;;4943395;28;20258;-85
2023/01/03 04:21:23;;;;;;;10.97;7.17;;;;;;;;;;4923058;28;20675;-85
2023/01/03 04:23:53;;;;;;;8.10;7.37;;;;;;;;;;4962480;28;20313;-85
2023/01/03 04:26:19;;;;;;;9.13;7.67;;;;;;;;;;4962295;28;20324;-86
2023/01/03 04:28:47;;;;;;;10.10;7.80;;;;;;;;;;4944717;28;20213;-86
2023/01/03 04:31:17;;;;;;;8.70;7.70;;;;;;;;;;4935840;28;20225;-86
2023/01/03 04:33:45;;;;;;;8.77;7.47;;;;;;;;;;4956494;28;20210;-88
2023/01/03 04:36:12;;;;;;;8.63;7.13;;;;;;;;;;4941091;28;20222;-85
2023/01/03 04:38:38;;;;;;;9.93;7.50;;;;;;;;;;4929817;28;20233;-86
2023/01/03 04:41:09;;;;;;;8.50;7.13;;;;;;;;;;4926403;28;20210;-85
2023/01/03 04:46:19;;;;;;;9.30;6.93;;;;;;;;;;4970316;28;20257;-85
2023/01/03 04:48:45;;;;;;;7.83;6.80;;;;;;;;;;4956836;28;20214;-85
2023/01/03 04:51:10;;;;;;;7.67;6.97;;;;;;;;;;4958415;28;20233;-84
2023/01/03 04:53:38;;;;;;;9.20;7.13;;;;;;;;;;4945029;28;20226;-87
2023/01/03 04:56:04;;;;;;;7.20;6.50;;;;;;;;;;4937841;28;20235;-85
2023/01/03 04:58:29;;;;;;;7.60;6.90;;;;;;;;;;4929706;28;20269;-84
2023/01/03 05:01:01;;;;;;;12.80;7.47;;;;;;;;;;4958739;28;20249;-84
2023/01/03 05:03:27;;;;;;;11.60;7.57;;;;;;;;;;4946698;28;20288;-86
2023/01/03 05:06:00;;;;;;;10.13;7.30;;;;;;;;;;4945600;28;20233;-86
2023/01/03 05:08:30;;;;;;;7.97;7.07;;;;;;;;;;4944461;28;20213;-86
2023/01/03 05:10:55;;;;;;;8.40;7.37;;;;;;;;;;4936796;28;20315;-84
2023/01/03 05:13:21;;;;;;;7.03;6.43;;;;;;;;;;4947584;28;20242;-85
2023/01/03 05:15:49;;;;;;;8.60;6.90;;;;;;;;;;4950694;28;20218;-84
2023/01/03 05:18:14;;;;;;;7.70;6.87;;;;;;;;;;4956980;28;20252;-84
2023/01/03 05:26:13;;;;;;;8.83;6.80;;;;;;;;;;4928156;29;20222;-87
2023/01/03 05:28:38;;;;;;;9.40;7.33;;;;;;;;;;4915967;29;20309;-89
2023/01/03 05:31:04;;;;;;;7.57;6.33;;;;;;;;;;4910712;28;20226;-85
2023/01/03 05:33:30;;;;;;;8.80;7.90;;;;;;;;;;4910736;28;20229;-89
2023/01/03 05:35:57;;;;;;;10.70;9.53;;;;;;;;;;4927034;28;20214;-89
2023/01/03 05:38:23;;;;;;;8.70;7.90;;;;;;;;;;4919959;28;20728;-91
2023/01/03 05:40:49;;;;;;;8.77;7.53;;;;;;;;;;4942589;28;20218;-86
2023/01/03 05:43:17;;;;;;;7.60;6.80;;;;;;;;;;4946202;28;20231;-84
2023/01/03 05:45:47;;;;;;;8.50;7.17;;;;;;;;;;4944565;28;20234;-85
2023/01/03 05:48:15;;;;;;;9.93;6.87;;;;;;;;;;4924992;28;20229;-88
2023/01/03 05:50:40;;;;;;;8.07;6.80;;;;;;;;;;4935130;28;20226;-87
2023/01/03 05:53:06;;;;;;;8.57;6.77;;;;;;;;;;4928859;28;20233;-88
2023/01/03 05:55:31;;;;;;;7.40;6.70;;;;;;;;;;4921104;28;20240;-90
2023/01/03 05:57:57;;;;;;;10.07;7.73;;;;;;;;;;4926850;28;20222;-87
2023/01/03 06:00:22;;;;;;;8.03;7.17;;;;;;;;;;4936803;28;20235;-84
2023/01/03 06:02:50;;;;;;;8.60;7.10;;;;;;;;;;4925373;28;20234;-84
2023/01/03 06:05:16;;;;;;;7.20;6.53;;;;;;;;;;4932746;28;20274;-88
2023/01/03 06:07:41;;;;;;;7.93;7.00;;;;;;;;;;4942033;28;20300;-85
2023/01/03 06:10:07;;;;;;;8.30;7.50;;;;;;;;;;4930091;28;20214;-86
2023/01/03 06:12:35;;;;;;;9.43;8.47;;;;;;;;;;4918383;29;20238;-89
2023/01/03 06:15:03;;;;;;;10.63;7.63;;;;;;;;;;4939535;28;20254;-89
2023/01/03 06:20:15;;;;;;;8.37;7.57;;;;;;;;;;4958238;28;20308;-90
2023/01/03 06:22:40;;;;;;;9.73;7.17;;;;;;;;;;4921059;28;20225;-87
2023/01/03 06:25:08;;;;;;;10.07;7.07;;;;;;;;;;4925873;29;20225;-89
2023/01/03 06:27:34;;;;;;;8.27;7.27;;;;;;;;;;4942810;28;20839;-89
2023/01/03 06:29:59;;;;;;;8.63;7.10;;;;;;;;;;4935700;28;20225;-87
2023/01/03 06:32:25;;;;;;;10.13;6.87;;;;;;;;;;4932204;28;20222;-87
2023/01/03 06:34:53;;;;;;;8.93;7.70;;;;;;;;;;4946465;28;20227;-90
2023/01/03 06:37:21;;;;;;;12.33;7.37;;;;;;;;;;4931177;28;20612;-89
2023/01/03 06:39:48;;;;;;;9.33;8.33;;;;;;;;;;4945212;28;20229;-90
2023/01/03 06:53:16;;;;;;;9.77;8.57;;;;;;;;;;4941468;28;20985;-88
2023/01/03 06:55:44;;;;;;;10.30;9.40;;;;;;;;;;4936282;28;20225;-90
2023/01/03 06:58:12;;;;;;;11.97;9.53;;;;;;;;;;4925392;28;20228;-90
2023/01/03 07:00:41;;;;;;;11.53;10.33;;;;;;;;;;4921849;29;20219;-88
2023/01/03 07:03:09;;;;;;;11.03;9.73;;;;;;;;;;4923401;28;20731;-88
2023/01/03 07:05:34;;;;;;;12.53;10.30;;;;;;;;;;4925173;28;20234;-90
2023/01/03 07:08:02;;;;;;;11.73;10.37;;;;;;;;;;4929880;28;20225;-90
2023/01/03 07:10:30;;;;;;;14.83;10.70;;;;;;;;;;4923088;28;20221;-89
2023/01/03 07:15:45;;;;;;;19.90;15.03;;;;;;;;;;4926147;29;20219;-87
2023/01/03 07:18:10;;;;;;;16.87;13.47;;;;;;;;;;4922390;28;20253;-84
2023/01/03 07:20:42;;;;;;;15.73;13.43;;;;;;;;;;4925724;28;20250;-88
2023/01/03 07:23:10;;;;;;;21.97;14.53;;;;;;;;;;4940589;28;20266;-87
2023/01/03 07:25:40;;;;;;;14.70;13.23;;;;;;;;;;4906382;28;20280;-84
2023/01/03 07:28:11;;;;;;;14.87;12.67;;;;;;;;;;4925458;28;20267;-87
2023/01/03 07:30:38;;;;;;;14.00;12.57;;;;;;;;;;4930500;28;20230;-82
2023/01/03 07:33:04;;;;;;;13.17;11.87;;;;;;;;;;4929238;29;20326;-88
2023/01/03 07:35:38;;;;;;;13.27;11.87;;;;;;;;;;4901249;28;20218;-87
2023/01/03 07:38:06;;;;;;;13.43;11.53;;;;;;;;;;4907726;28;20281;-87
2023/01/03 07:40:36;;;;;;;13.13;11.80;;;;;;;;;;4923727;28;20285;-87
2023/01/03 07:45:48;;;;;;;13.73;10.93;;;;;;;;;;4944482;28;20296;-87
2023/01/03 07:48:14;;;;;;;15.87;11.87;;;;;;;;;;4922440;28;20218;-87
2023/01/03 07:50:39;;;;;;;15.20;11.77;;;;;;;;;;4925181;28;20263;-87
2023/01/03 07:53:06;;;;;;;16.40;13.10;;;;;;;;;;4926289;28;20213;-87
2023/01/03 07:55:35;;;;;;;13.37;12.07;;;;;;;;;;4919489;29;20219;-88
2023/01/03 07:58:03;;;;;;;16.57;13.37;;;;;;;;;;4922017;28;20218;-87
2023/01/03 08:00:31;;;;;;;16.00;14.23;;;;;;;;;;4948949;28;20237;-88
2023/01/03 08:02:59;;;;;;;17.00;14.23;;;;;;;;;;4930282;28;20596;-86
2023/01/03 08:05:26;;;;;;;15.47;13.30;;;;;;;;;;4935697;28;20229;-87
2023/01/03 08:07:54;;;;;;;14.23;12.73;;;;;;;;;;4921622;28;20301;-86
2023/01/03 08:13:16;;;;;;;13.37;11.83;;;;;;;;;;4931452;28;20253;-86
2023/01/03 08:15:50;;;;;;;10.37;9.23;;;;;;;;;;4932055;28;20218;-87
2023/01/03 08:18:18;;;;;;;11.53;10.20;;;;;;;;;;4937440;29;20223;-87
2023/01/03 08:20:43;;;;;;;11.07;9.97;;;;;;;;;;4933163;28;20230;-86
2023/01/03 08:23:09;;;;;;;11.20;10.13;;;;;;;;;;4938957;29;20237;-88
2023/01/03 08:25:37;;;;;;;13.23;10.80;;;;;;;;;;4916869;28;20261;-88
2023/01/03 08:28:02;;;;;;;11.30;10.30;;;;;;;;;;4927095;28;20214;-88
2023/01/03 08:30:33;;;;;;;93.57;54.30;;;;;;;;;;4941667;28;20229;-82
2023/01/03 08:33:03;;;;;;;91.83;52.67;;;;;;;;;;4901650;29;20666;-88
2023/01/03 08:35:31;;;;;;;132.97;60.87;;;;;;;;;;4921852;28;20237;-86
2023/01/03 08:37:57;;;;;;;42.63;26.50;;;;;;;;;;4940745;28;20732;-85
2023/01/03 08:40:23;;;;;;;21.73;16.37;;;;;;;;;;4906267;28;20235;-87
2023/01/03 08:42:48;;;;;;;16.73;14.97;;;;;;;;;;4935054;29;20219;-89
2023/01/03 08:45:15;;;;;;;16.97;14.10;;;;;;;;;;4936364;28;20228;-88
2023/01/03 08:47:43;;;;;;;17.50;15.63;;;;;;;;;;4912668;28;20231;-86
2023/01/03 08:50:11;;;;;;;19.03;15.13;;;;;;;;;;4923738;28;20491;-87
2023/01/03 08:52:39;;;;;;;18.67;15.43;;;;;;;;;;4938743;28;20220;-90
2023/01/03 08:55:07;;;;;;;17.87;15.63;;;;;;;;;;4939779;28;20214;-89
2023/01/03 08:57:33;;;;;;;18.93;16.43;;;;;;;;;;4929384;28;20222;-88
2023/01/03 09:00:01;;;;;;;19.60;16.83;;;;;;;;;;4932309;28;20214;-86
2023/01/03 09:02:26;;;;;;;19.80;16.40;;;;;;;;;;4927585;28;20357;-87
2023/01/03 09:04:52;;;;;;;25.97;22.50;;;;;;;;;;4957971;28;20235;-86
2023/01/03 09:07:19;;;;;;;23.77;18.40;;;;;;;;;;4944583;28;20245;-89
2023/01/03 09:09:47;;;;;;;19.77;17.67;;;;;;;;;;4935052;28;20207;-84
2023/01/03 09:12:17;;;;;;;22.70;19.23;;;;;;;;;;4945662;28;20201;-84
2023/01/03 09:14:43;;;;;;;23.13;17.80;;;;;;;;;;4925166;28;20233;-88
2023/01/03 09:17:14;;;;;;;24.47;21.80;;;;;;;;;;4922875;28;20221;-89
2023/01/03 09:19:42;;;;;;;34.07;29.73;;;;;;;;;;4919130;28;20225;-89
2023/01/03 09:22:14;;;;;;;27.07;24.17;;;;;;;;;;4945389;28;20282;-90
2023/01/03 09:24:42;;;;;;;24.27;20.60;;;;;;;;;;4907524;28;20310;-85
2023/01/03 09:27:10;;;;;;;23.07;18.43;;;;;;;;;;4914468;28;20226;-90
2023/01/03 09:29:40;;;;;;;22.77;19.07;;;;;;;;;;4945207;28;20242;-84
2023/01/03 09:32:05;;;;;;;24.67;18.93;;;;;;;;;;4942678;28;20228;-86
2023/01/03 09:34:33;;;;;;;20.57;18.03;;;;;;;;;;4917478;28;20234;-89
2023/01/03 09:36:59;;;;;;;20.63;18.17;;;;;;;;;;4925242;28;20234;-86
2023/01/03 09:39:24;;;;;;;24.47;19.93;;;;;;;;;;4915036;28;20219;-88
2023/01/03 09:43:11;;;;;;;22.00;18.67;;;;;;;;;;4937612;28;20594;-87
2023/01/03 09:44:38;;;;;;;22.73;19.50;;;;;;;;;;4927760;28;20855;-88
2023/01/03 09:47:09;;;;;;;20.57;17.90;;;;;;;;;;4908038;28;20709;-87
2023/01/03 09:49:37;;;;;;;20.70;18.30;;;;;;;;;;4923344;28;20213;-83
2023/01/03 10:03:44;;;;;;;24.00;18.40;;;;;;;;;;4933247;28;20219;-87
2023/01/03 10:06:18;;;;;;;20.90;16.83;;;;;;;;;;4968532;28;20227;-87
2023/01/03 10:09:02;;;;;;;22.67;17.53;;;;;;;;;;4968843;28;20312;-88
2023/01/03 10:11:34;;;;;;;18.70;16.67;;;;;;;;;;4947557;29;20227;-88
2023/01/03 10:14:47;;;;;;;24.70;18.60;;;;;;;;;;4940040;29;20244;-87
2023/01/03 10:17:15;;;;;;;20.07;17.90;;;;;;;;;;4885480;29;20228;-87
2023/01/03 10:19:50;;;;;;;20.07;17.80;;;;;;;;;;4931932;28;20232;-86
2023/01/03 10:22:24;;;;;;;21.00;18.00;;;;;;;;;;4900367;28;20233;-88
2023/01/03 10:25:11;;;;;;;20.50;18.37;;;;;;;;;;4925855;28;20254;-87
2023/01/03 10:27:50;;;;;;;20.60;18.50;;;;;;;;;;4953784;28;20297;-87
2023/01/03 10:30:55;;;;;;;22.90;19.17;;;;;;;;;;4933413;28;20242;-88
2023/01/03 10:33:37;;;;;;;23.43;20.17;;;;;;;;;;4961003;28;20314;-87
2023/01/03 10:36:03;;;;;;;25.17;21.43;;;;;;;;;;4942889;28;20226;-90
2023/01/03 10:38:29;;;;;;;23.47;20.23;;;;;;;;;;4928966;28;20218;-88
2023/01/03 10:41:03;;;;;;;23.63;19.27;;;;;;;;;;4928408;28;20927;-88
2023/01/03 10:43:34;;;;;;;20.97;18.37;;;;;;;;;;4908905;28;20243;-87
2023/01/03 10:46:25;;;;;;;21.53;19.27;;;;;;;;;;4968092;28;20732;-87
2023/01/03 10:48:52;;;;;;;23.20;18.27;;;;;;;;;;4924109;28;20215;-84
2023/01/03 10:51:29;;;;;;;20.60;17.97;;;;;;;;;;4921586;28;20331;-86
2023/01/03 10:53:56;;;;;;;18.63;16.90;;;;;;;;;;4950484;28;20317;-86
2023/01/03 10:56:22;;;;;;;19.77;17.67;;;;;;;;;;4919630;29;20346;-86
2023/01/03 10:59:08;;;;;;;19.13;17.23;;;;;;;;;;4937730;28;20258;-86
2023/01/03 11:01:36;;;;;;;22.30;19.00;;;;;;;;;;4934686;28;20231;-85
2023/01/03 11:04:22;;;;;;;20.50;18.40;;;;;;;;;;4935874;28;20225;-87
2023/01/03 11:07:12;;;;;;;20.27;18.13;;;;;;;;;;4931917;29;20245;-88
2023/01/03 11:09:57;;;;;;;22.50;19.63;;;;;;;;;;4969568;28;20218;-84
2023/01/03 11:12:35;;;;;;;20.63;18.63;;;;;;;;;;4934099;29;20234;-85
2023/01/03 11:15:04;;;;;;;20.83;18.73;;;;;;;;;;4953030;28;20247;-84
2023/01/03 11:17:29;;;;;;;20.00;17.90;;;;;;;;;;4930893;28;20234;-83
2023/01/03 11:19:56;;;;;;;18.93;17.10;;;;;;;;;;4960236;28;20212;-85
2023/01/03 11:22:44;;;;;;;20.07;17.97;;;;;;;;;;4956152;28;20333;-84
2023/01/03 11:25:15;;;;;;;18.63;16.67;;;;;;;;;;4959510;28;20678;-85
2023/01/03 11:28:10;;;;;;;18.23;16.33;;;;;;;;;;4959192;28;20253;-85
2023/01/03 11:30:57;;;;;;;17.50;15.70;;;;;;;;;;4903740;28;20295;-85
2023/01/03 11:33:45;;;;;;;18.00;16.20;;;;;;;;;;4969768;28;20318;-87
2023/01/03 11:36:27;;;;;;;18.27;16.47;;;;;;;;;;4939532;29;20233;-88
2023/01/03 11:39:37;;;;;;;18.20;16.43;;;;;;;;;;4953359;28;20227;-88
2023/01/03 11:42:20;;;;;;;17.90;16.27;;;;;;;;;;4913698;29;20311;-87
2023/01/03 11:45:14;;;;;;;18.33;16.50;;;;;;;;;;4884029;29;20248;-89
2023/01/03 11:48:05;;;;;;;18.50;16.60;;;;;;;;;;4930032;28;20225;-88
2023/01/03 11:51:16;;;;;;;17.17;15.27;;;;;;;;;;4941820;28;20229;-87
2023/01/03 11:54:06;;;;;;;17.13;15.53;;;;;;;;;;4949983;28;20298;-87
2023/01/03 11:56:43;;;;;;;19.43;17.50;;;;;;;;;;4950724;28;20227;-86
2023/01/03 11:59:18;;;;;;;16.60;15.07;;;;;;;;;;4909311;28;20230;-85
2023/01/03 12:02:16;;;;;;;17.83;16.00;;;;;;;;;;4952161;28;20229;-85
2023/01/03 12:05:32;;;;;;;16.47;14.97;;;;;;;;;;4957418;28;20243;-86
2023/01/03 12:08:10;;;;;;;17.90;16.07;;;;;;;;;;4893701;29;20292;-88
2023/01/03 12:11:00;;;;;;;18.13;16.23;;;;;;;;;;4909942;29;20223;-87
2023/01/03 12:14:02;;;;;;;18.47;16.63;;;;;;;;;;4922079;28;20250;-88
2023/01/03 12:16:35;;;;;;;19.73;17.77;;;;;;;;;;4950680;29;20233;-86
2023/01/03 12:19:32;;;;;;;21.53;19.07;;;;;;;;;;4922521;28;20222;-87
2023/01/03 12:22:20;;;;;;;19.23;17.33;;;;;;;;;;4924718;28;20230;-87
2023/01/03 12:24:48;;;;;;;22.77;20.27;;;;;;;;;;4953429;28;20225;-87
2023/01/03 12:27:16;;;;;;;26.50;23.60;;;;;;;;;;4928579;28;20250;-89
2023/01/03 12:29:56;;;;;;;22.67;19.20;;;;;;;;;;4920513;28;20233;-86
2023/01/03 12:32:33;;;;;;;24.00;19.00;;;;;;;;;;4934128;28;20232;-87
2023/01/03 12:35:05;;;;;;;22.87;18.40;;;;;;;;;;4934618;28;20621;-86
2023/01/03 12:37:37;;;;;;;17.83;15.20;;;;;;;;;;4959469;28;20233;-88
2023/01/03 12:40:47;;;;;;;17.57;15.73;;;;;;;;;;4914090;28;20244;-87
2023/01/03 12:43:18;;;;;;;16.17;14.57;;;;;;;;;;4968901;28;20237;-88
2023/01/03 12:46:21;;;;;;;16.77;15.23;;;;;;;;;;4934830;28;20237;-87
2023/01/03 12:49:11;;;;;;;15.40;14.03;;;;;;;;;;4926035;29;20233;-87
2023/01/03 12:51:36;;;;;;;15.47;14.00;;;;;;;;;;4956019;28;20217;-87
2023/01/03 12:54:04;;;;;;;16.47;14.73;;;;;;;;;;4942265;28;20230;-89
2023/01/03 12:57:04;;;;;;;16.53;14.93;;;;;;;;;;4945139;29;20226;-88
2023/01/03 12:59:43;;;;;;;16.13;14.57;;;;;;;;;;4936158;28;20614;-89
2023/01/03 13:02:34;;;;;;;15.87;14.37;;;;;;;;;;4924836;28;20462;-84
2023/01/03 13:05:13;;;;;;;16.87;15.10;;;;;;;;;;4944825;29;20230;-89
2023/01/03 13:07:44;;;;;;;16.07;14.47;;;;;;;;;;4911131;28;20370;-89
2023/01/03 13:10:13;;;;;;;16.10;14.43;;;;;;;;;;4931568;28;20229;-89
2023/01/03 13:12:49;;;;;;;15.57;14.17;;;;;;;;;;4923964;28;20229;-88
2023/01/03 13:15:34;;;;;;;14.27;13.00;;;;;;;;;;4921159;28;21302;-88
2023/01/03 13:18:15;;;;;;;14.40;13.00;;;;;;;;;;4942533;28;20673;-87
2023/01/03 13:20:41;;;;;;;13.27;12.07;;;;;;;;;;4969444;28;20226;-88
2023/01/03 13:23:25;;;;;;;14.60;13.20;;;;;;;;;;4921677;28;20222;-88
2023/01/03 13:26:06;;;;;;;14.63;12.20;;;;;;;;;;4948010;28;20210;-88
2023/01/03 13:28:40;;;;;;;13.40;11.73;;;;;;;;;;4954727;28;20677;-87
2023/01/03 13:31:12;;;;;;;13.20;11.90;;;;;;;;;;4944797;28;20231;-88
2023/01/03 13:33:54;;;;;;;12.80;11.50;;;;;;;;;;4948398;28;20241;-89
2023/01/03 13:36:19;;;;;;;12.27;10.73;;;;;;;;;;4918734;28;20309;-88
2023/01/03 13:38:47;;;;;;;11.70;10.60;;;;;;;;;;4942645;28;20227;-88
2023/01/03 13:41:34;;;;;;;13.70;11.33;;;;;;;;;;4920229;28;20223;-87
2023/01/03 13:44:07;;;;;;;11.57;10.37;;;;;;;;;;4957739;28;20233;-87
2023/01/03 13:46:35;;;;;;;13.17;11.40;;;;;;;;;;4933896;28;20990;-87
2023/01/03 13:49:04;;;;;;;11.20;10.10;;;;;;;;;;4925608;28;20232;-87
2023/01/03 13:51:41;;;;;;;10.93;10.00;;;;;;;;;;4925078;28;20221;-88
2023/01/03 13:54:22;;;;;;;10.60;9.50;;;;;;;;;;4941702;28;20235;-86
2023/01/03 13:57:04;;;;;;;;;;;;;;;;;;;;;
2023/01/03 14:00:34;;;;;;;;;;;;;;;;;;;;;
2023/01/03 14:03:40;;;;;;;10.70;9.80;;;;;;;;;;4931737;28;20789;-87
2023/01/03 14:07:20;;;;;;;;;;;;;;;;;;;;;
2023/01/03 14:13:15;;;;;;;11.43;9.97;;;;;;;;;;4928460;29;20231;-86
2023/01/03 14:16:41;;;;;;;;;;;;;;;;;;;;;
2023/01/03 14:19:38;;;;;;;10.27;9.27;;;;;;;;;;4943418;28;20226;-87
2023/01/03 14:22:57;;;;;;;;;;;;;;;;;;;;;
2023/01/03 14:25:58;;;;;;;11.30;9.40;;;;;;;;;;4931772;28;20307;-88
2023/01/03 14:28:49;;;;;;;10.00;9.10;;;;;;;;;;4921309;29;20291;-87
2023/01/03 14:31:38;;;;;;;10.20;9.30;;;;;;;;;;4931727;28;20257;-87
2023/01/03 14:34:21;;;;;;;10.10;9.20;;;;;;;;;;4918180;28;20238;-87
2023/01/03 14:37:03;;;;;;;10.57;9.67;;;;;;;;;;4929472;28;20811;-84
2023/01/03 14:43:53;;;;;;;10.50;9.50;;;;;;;;;;4915625;28;20250;-84
2023/01/03 14:46:32;;;;;;;11.60;9.97;;;;;;;;;;4926371;28;20234;-87
2023/01/03 14:48:59;;;;;;;10.43;9.53;;;;;;;;;;4924469;28;20851;-86
2023/01/03 14:51:30;;;;;;;10.70;9.70;;;;;;;;;;4923761;28;20214;-86
2023/01/03 14:54:43;;;;;;;12.97;11.60;;;;;;;;;;4912088;28;20230;-85
2023/01/03 14:57:19;;;;;;;11.43;10.33;;;;;;;;;;4933378;28;20226;-86
2023/01/03 15:00:06;;;;;;;;;;;;;;;;;;;;;
2023/01/03 15:02:37;;;;;;;11.00;9.93;;;;;;;;;;4905274;29;20223;-87
2023/01/03 15:05:26;;;;;;;14.17;10.80;;;;;;;;;;4931962;28;20233;-86
2023/01/03 15:08:28;;;;;;;11.80;10.57;;;;;;;;;;4957879;28;20234;-87
2023/01/03 15:11:40;;;;;;;11.00;10.00;;;;;;;;;;4915886;28;20354;-87
2023/01/03 15:18:15;;;;;;;12.27;11.13;;;;;;;;;;4955418;28;20757;-87
2023/01/03 15:20:48;;;;;;;13.40;12.00;;;;;;;;;;4916279;28;20236;-86
2023/01/03 15:24:00;;;;;;;15.73;13.20;;;;;;;;;;4945186;28;20761;-84
2023/01/03 15:26:48;;;;;;;13.67;12.47;;;;;;;;;;4956907;28;20721;-88
2023/01/03 15:29:37;;;;;;;;;;;;;;;;;;;;;
2023/01/03 15:35:29;;;;;;;15.80;14.30;;;;;;;;;;4906044;28;20231;-88
2023/01/03 15:38:19;;;;;;;16.17;14.67;;;;;;;;;;4925111;28;20293;-87
2023/01/03 15:41:14;;;;;;;16.37;14.67;;;;;;;;;;4902259;29;20306;-87
2023/01/03 15:43:49;;;;;;;18.83;16.40;;;;;;;;;;4908627;29;20235;-87
2023/01/03 15:46:24;;;;;;;19.17;15.77;;;;;;;;;;4911011;28;20245;-87
2023/01/03 15:48:55;;;;;;;19.93;16.87;;;;;;;;;;4926200;28;20226;-87
2023/01/03 15:55:06;;;;;;;18.00;14.37;;;;;;;;;;4991735;23;20232;-77
2023/01/03 15:57:31;;;;;;;15.47;13.93;;;;;;;;;;4993199;28;20226;-80
2023/01/03 15:59:59;;;;;;;16.07;14.63;;;;;;;;;;4929134;28;20226;-78
2023/01/03 16:02:28;;;;;;;16.87;15.17;;;;;;;;;;4938777;28;20329;-76
2023/01/03 16:04:56;;;;;;;16.23;14.53;;;;;;;;;;4957487;28;20587;-77
2023/01/03 16:07:26;;;;;;;15.80;14.10;;;;;;;;;;4972520;28;20226;-78
2023/01/03 16:09:54;;;;;;;15.83;14.37;;;;;;;;;;4958939;28;20253;-79
2023/01/03 16:12:26;;;;;;;15.70;13.97;;;;;;;;;;4923739;28;20229;-75
2023/01/03 16:14:59;;;;;;;14.67;13.30;;;;;;;;;;4955458;28;20216;-76
2023/01/03 16:17:29;;;;;;;17.60;14.30;;;;;;;;;;4924399;28;20229;-79
2023/01/03 16:19:58;;;;;;;14.57;13.20;;;;;;;;;;4944586;28;20222;-77
2023/01/03 16:22:26;;;;;;;15.60;14.13;;;;;;;;;;4954163;28;20261;-77
2023/01/03 16:24:54;;;;;;;14.23;12.47;;;;;;;;;;4956551;28;20260;-78
2023/01/03 16:27:24;;;;;;;13.03;11.73;;;;;;;;;;4971517;28;20321;-79
2023/01/03 16:29:50;;;;;;;12.47;11.20;;;;;;;;;;4959810;28;20229;-80
2023/01/03 16:32:28;;;;;;;12.97;11.30;;;;;;;;;;4955730;28;20232;-80
2023/01/03 16:35:06;;;;;;;14.73;13.30;;;;;;;;;;4957393;28;20228;-78
2023/01/03 16:37:31;;;;;;;10.70;9.80;;;;;;;;;;4972143;28;20218;-78
2023/01/03 16:39:57;;;;;;;11.07;9.80;;;;;;;;;;4956798;28;20265;-79
2023/01/03 16:42:28;;;;;;;11.47;10.27;;;;;;;;;;4974003;28;20249;-78